Weather observations for the past three days for
York, York Municipal Airport
Imperial (Metric)
Date Time (cdt) Wind (mph) Vis. (mi.) Weather Sky Cond. Temperature (ºF) Relative Humidity Wind Chill (°F) Heat Index (°F) Pressure Precipitation (in)
Air Dwpt 6 hour altimeter (in) sea level (mb) 1 hr 3 hr 6 hr
Max. Min.
07 22:35 E 8 10.00 Mostly Cloudy BKN120 59 30.2 34% 29.82 0.0
07 21:55 NE 6 10.00 Overcast OVC120 59 32 36% 29.82 0.0
07 21:35 NE 8 10.00 Mostly Cloudy BKN120 59 30.2 34% 29.81 0.0
07 21:15 E 7 10.00 Mostly Cloudy BKN110 60.8 30.2 31% 29.8 0.0
07 20:55 NE 6 10.00 Overcast OVC110 62.6 30.2 30% 29.8 0.0
07 20:35 N 9 10.00 Overcast OVC110 60.8 35.6 39% 29.8 0.0
07 20:15 N 8 10.00 Mostly Cloudy BKN120 62.6 33.8 34% 29.79 0.0
07 19:55 Calm 10.00 Fair CLR 66.2 32 28% 29.79 0.0
07 19:35 NW 6 10.00 Fair CLR 69.8 30.2 23% 29.79 0.0
07 19:15 NW 8 10.00 Fair CLR 71.6 28.4 20% 29.79 0.0
07 18:55 NW 10 10.00 Fair CLR 71.6 28.4 20% 29.79 0.0
07 18:35 NW 10 G 17 10.00 A Few Clouds FEW120 73.4 28.4 19% 29.79 0.0
07 18:15 W 10 10.00 Partly Cloudy SCT120 73.4 28.4 19% 29.79 0.0
07 17:55 W 14 10.00 Fair CLR 73.4 28.4 19% 29.79 0.0
07 17:35 N 9 10.00 Fair CLR 71.6 30.2 22% 29.79 0.0
07 17:15 NW 9 G 15 10.00 Fair CLR 73.4 28.4 19% 29.79 0.0
07 16:55 NW 9 G 21 10.00 Fair CLR 73.4 28.4 19% 29.8 0.0
07 16:35 N 5 G 17 10.00 Fair CLR 71.6 28.4 20% 29.8 0.0
07 16:15 W 12 G 22 10.00 Fair CLR 71.6 28.4 20% 29.8 0.0
07 15:55 W 15 G 22 10.00 Fair CLR 71.6 28.4 20% 29.81 0.0
07 15:35 W 17 G 24 10.00 Fair CLR 71.6 28.4 20% 29.81 0.0
07 15:15 NW 13 G 20 10.00 Fair CLR 69.8 28.4 21% 29.82 0.0
07 14:35 NW 13 G 18 10.00 Fair CLR 71.6 28.4 20% 29.83 0.0
07 14:15 NW 9 G 17 10.00 Fair CLR 69.8 28.4 21% 29.83 0.0
07 13:55 NW 10 10.00 Fair CLR 69.8 28.4 21% 29.82 0.0
07 13:35 NW 10 10.00 Fair CLR 68 30.2 24% 29.83 0.0
07 13:15 NW 8 10.00 Fair CLR 68 32 26% 29.83 0.0
07 12:55 NW 10 G 24 10.00 Fair CLR 68 33.8 28% 29.84 0.0
07 12:15 W 9 G 17 10.00 Fair CLR 66.2 35.6 32% 29.85 0.0
07 11:55 W 10 G 16 10.00 Fair CLR 64.4 37.4 37% 29.85 0.0
07 11:35 NW 10 G 17 10.00 Fair CLR 62.6 37.4 39% 29.85 0.0
07 10:55 W 15 G 22 10.00 Fair CLR 60.8 37.4 42% 29.85 0.0
07 10:35 W 16 10.00 Fair CLR 59 37.4 45% 29.86 0.0
07 10:15 W 18 10.00 Fair CLR 59 37.4 45% 29.86 0.0
07 09:55 SW 15 G 22 10.00 Fair CLR 59 37.4 45% 29.86 0.0
07 09:35 SW 17 G 23 10.00 Fair CLR 57.2 37.4 48% 29.86 0.0
07 09:15 SW 18 10.00 Fair CLR 55.4 39.2 55% 29.86 0.0
07 08:55 SW 16 10.00 Fair CLR 51.8 39.2 62% 29.87 0.0
07 08:35 SW 14 10.00 Fair CLR 50 41 71% 45 29.88 0.0
07 08:15 SW 16 10.00 Fair CLR 48.2 41 76% 43 29.89 0.0
07 07:55 SW 15 10.00 Fair CLR 46.4 41 82% 41 29.89 0.0
07 07:35 SW 12 10.00 Fair CLR 44.6 41 87% 39 29.89 0.0
07 07:15 SW 12 10.00 Fair CLR 42.8 41 93% 37 29.9 0.0
07 06:55 SW 13 10.00 Fair CLR 42.8 41 93% 37 29.89 0.0
07 06:35 SW 10 10.00 Fair CLR 41 39.2 93% 35 29.9 0.0
07 05:55 SW 13 10.00 Fair CLR 41 41 100% 34 29.91 0.0
07 05:35 SW 14 10.00 Fair CLR 42.8 41 93% 36 29.91 0.0
07 05:15 SW 14 10.00 Fair CLR 42.8 41 93% 36 29.91 0.0
07 04:55 SW 12 10.00 Fair CLR 42.8 41 93% 37 29.92 0.0
07 04:35 SW 13 10.00 Fair CLR 42.8 41 93% 37 29.92 0.0
07 04:15 SW 10 10.00 Fair CLR 42.8 39.2 87% 38 29.92 0.0
07 03:55 SW 10 10.00 Fair CLR 42.8 39.2 87% 38 29.93 0.0
07 03:35 SW 12 10.00 Fair CLR 42.8 39.2 87% 37 29.93 0.0
07 03:15 SW 12 10.00 Fair CLR 42.8 39.2 87% 37 29.94 0.0
07 02:55 SW 10 10.00 Fair CLR 42.8 39.2 87% 38 29.95 0.0
07 02:35 SW 12 10.00 Fair CLR 44.6 39.2 81% 39 29.96 0.0
07 02:15 SW 13 10.00 Fair CLR 44.6 39.2 81% 39 29.97 0.0
07 01:55 SW 13 10.00 Fair CLR 44.6 39.2 81% 39 29.97 0.0
07 01:35 SW 13 10.00 Fair CLR 46.4 39.2 76% 41 29.98 0.0
07 01:15 SW 16 10.00 Fair CLR 46.4 39.2 76% 40 29.98 0.0
07 00:55 SW 14 10.00 Fair CLR 46.4 39.2 76% 41 29.99 0.0
07 00:35 SW 14 10.00 Fair CLR 46.4 37.4 71% 41 29.99 0.0
07 00:15 SW 12 10.00 Fair CLR 46.4 35.6 66% 42 29.99 0.0
06 23:55 SW 10 10.00 Fair CLR 48.2 35.6 62% 44 29.99 0.0
06 23:35 SW 13 10.00 Fair CLR 48.2 35.6 62% 43 30 0.0
06 23:15 SW 13 10.00 Fair CLR 48.2 35.6 62% 43 30 0.0
06 22:55 SW 13 10.00 Fair CLR 50 35.6 58% 46 30.01 0.0
06 22:35 SW 10 10.00 Partly Cloudy SCT085 48.2 33.8 58% 44 30.01 0.0
06 22:15 SW 12 10.00 Mostly Cloudy BKN085 50 32 50% 46 30.01 0.0
06 21:55 SW 9 10.00 Fair CLR 50 30.2 47% 47 30.01 0.0
06 21:35 SW 9 10.00 A Few Clouds FEW065 FEW075 FEW095 50 28.4 43% 47 30.01 0.0
06 21:15 SW 10 10.00 Overcast FEW065 BKN080 OVC090 51.8 28.4 41% 30 0.0
06 20:55 SW 9 10.00 Overcast OVC090 51.8 28.4 41% 30 0.0
06 20:35 SW 8 10.00 Mostly Cloudy BKN090 53.6 26.6 35% 29.99 0.0
06 20:15 SW 7 10.00 Overcast OVC090 55.4 26.6 33% 30 0.0
06 19:55 SW 9 10.00 Mostly Cloudy BKN090 55.4 26.6 33% 29.99 0.0
06 19:35 W 12 10.00 Overcast OVC090 57.2 24.8 29% 30 0.0
06 19:15 W 9 10.00 Mostly Cloudy BKN095 59 24.8 27% 30 0.0
06 18:35 W 10 10.00 Mostly Cloudy BKN090 59 23 25% 30.01 0.0
06 18:15 W 15 10.00 Partly Cloudy SCT090 59 23 25% 30.01 0.0
06 17:55 W 12 10.00 Mostly Cloudy BKN085 60.8 23 23% 30.01 0.0
06 17:35 W 14 10.00 Partly Cloudy SCT085 59 23 25% 30.02 0.0
06 17:15 W 14 10.00 Mostly Cloudy BKN090 59 23 25% 30.02 0.0
06 16:55 W 16 G 23 10.00 Mostly Cloudy BKN090 60.8 23 23% 30.03 0.0
06 16:35 W 12 G 20 10.00 Overcast OVC085 59 23 25% 30.03 0.0
06 16:15 NW 7 G 15 10.00 Overcast OVC085 57.2 24.8 29% 30.04 0.0
06 15:55 NW 12 G 18 10.00 Mostly Cloudy BKN085 57.2 23 27% 30.05 0.0
06 15:35 W 16 10.00 Mostly Cloudy BKN085 59 23 25% 30.06 0.0
06 15:15 NW 10 G 18 10.00 Overcast OVC080 57.2 23 27% 30.07 0.0
06 14:55 W 13 10.00 Overcast OVC085 59 23 25% 30.07 0.0
06 14:35 NW 14 10.00 Overcast OVC080 57.2 24.8 29% 30.08 0.0
06 14:15 NW 9 10.00 Mostly Cloudy BKN080 55.4 23 28% 30.08 0.0
06 13:55 W 12 10.00 Mostly Cloudy BKN080 BKN085 57.2 23 27% 30.08 0.0
06 13:35 N 10 G 20 10.00 Overcast BKN075 OVC085 55.4 23 28% 30.09 0.0
06 13:15 NW 8 G 17 10.00 Mostly Cloudy BKN080 55.4 23 28% 30.09 0.0
06 12:55 Vrbl 7 G 20 10.00 Mostly Cloudy BKN080 BKN090 55.4 23 28% 30.1 0.0
06 12:35 W 10 G 21 10.00 Mostly Cloudy BKN075 55.4 23 28% 30.1 0.0
06 12:15 N 8 G 21 10.00 Partly Cloudy SCT080 SCT090 55.4 23 28% 30.11 0.0
06 11:55 W 8 G 20 10.00 Partly Cloudy SCT080 53.6 23 30% 30.11 0.0
06 11:35 Vrbl 7 G 16 10.00 Mostly Cloudy BKN080 53.6 21.2 28% 30.11 0.0
06 11:15 Vrbl 7 G 17 10.00 Mostly Cloudy BKN075 53.6 21.2 28% 30.12 0.0
06 10:55 Vrbl 7 10.00 Overcast OVC075 51.8 24.8 35% 30.11 0.0
06 10:35 NW 10 10.00 Partly Cloudy SCT075 SCT095 51.8 24.8 35% 30.11 0.0
06 10:15 NW 9 10.00 Partly Cloudy SCT090 51.8 23 32% 30.11 0.0
06 09:55 Vrbl 5 10.00 Fair CLR 50 23 35% 49 30.11 0.0
06 09:35 Vrbl 5 10.00 Fair CLR 48.2 24.8 40% 47 30.12 0.0
06 09:15 Calm 10.00 Fair CLR 48.2 24.8 40% 30.11 0.0
06 08:55 Calm 10.00 Fair CLR 48.2 26.6 43% 30.11 0.0
06 08:35 Calm 10.00 Fair CLR 46.4 24.8 43% 30.11 0.0
06 08:15 Calm 10.00 Fair CLR 46.4 28.4 50% 30.1 0.0
06 07:55 N 6 10.00 Partly Cloudy SCT090 44.6 28.4 53% 42 30.09 0.0
06 07:35 N 3 10.00 Mostly Cloudy BKN090 42.8 30.2 61% 30.09 0.0
06 07:15 NW 5 10.00 Overcast OVC090 41 32 70% 38 30.08 0.0
06 06:55 NW 6 10.00 Mostly Cloudy FEW070 BKN095 39.2 30.2 70% 36 30.07 0.0
06 06:35 NW 5 10.00 Mostly Cloudy BKN075 BKN095 39.2 30.2 70% 36 30.06 0.0
06 06:15 Calm 10.00 Overcast OVC075 41 30.2 66% 30.05 0.0
06 05:55 Calm 10.00 Overcast OVC075 41 30.2 66% 30.05 0.0
06 05:35 W 3 10.00 Overcast OVC075 41 30.2 66% 30.05 0.0
06 05:15 NW 3 10.00 Overcast OVC075 41 30.2 66% 30.05 0.0
06 04:55 NW 3 10.00 Overcast OVC070 41 30.2 66% 30.05 0.0
06 04:35 NW 3 10.00 Overcast OVC070 42.8 28.4 57% 30.05 0.0
06 04:15 Calm 10.00 Overcast OVC070 42.8 28.4 57% 30.04 0.0
06 03:55 Calm 10.00 Overcast OVC070 42.8 30.2 61% 30.04 0.0
06 03:35 N 3 10.00 Overcast OVC075 42.8 26.6 53% 30.03 0.0
06 03:15 Calm 10.00 Overcast OVC075 42.8 26.6 53% 30.03 0.0
06 02:55 Calm 10.00 Partly Cloudy SCT075 42.8 26.6 53% 30.03 0.0
06 02:35 N 8 10.00 Fair CLR 42.8 26.6 53% 39 30.02 0.0
06 02:15 N 7 10.00 Fair CLR 42.8 26.6 53% 39 30.02 0.0
06 01:55 N 7 10.00 Fair CLR 44.6 26.6 49% 41 30.01 0.0
06 01:35 N 8 10.00 A Few Clouds FEW110 44.6 26.6 49% 41 30.01 0.0
06 01:15 N 8 10.00 Partly Cloudy SCT110 44.6 28.4 53% 41 30.01 0.0
06 00:55 N 5 10.00 Partly Cloudy SCT100 44.6 28.4 53% 43 30.01 0.0
06 00:35 N 6 10.00 Mostly Cloudy BKN110 44.6 28.4 53% 42 30 0.0
06 00:15 N 5 10.00 Overcast OVC100 46.4 26.6 46% 45 30 0.0
05 23:55 N 5 10.00 Overcast OVC110 46.4 26.6 46% 45 30 0.0
05 23:35 N 6 10.00 Overcast OVC110 46.4 26.6 46% 44 30 0.0
05 23:15 N 9 10.00 Overcast OVC110 48.2 24.8 40% 45 29.99 0.0
05 22:55 N 10 10.00 Overcast OVC100 48.2 24.8 40% 44 29.99 0.0
05 22:35 N 7 10.00 Overcast FEW085 OVC110 48.2 26.6 43% 46 29.99 0.0
05 22:15 N 9 10.00 Overcast OVC110 48.2 26.6 43% 45 29.98 0.0
05 21:55 N 8 10.00 Overcast FEW080 OVC110 50 24.8 37% 47 29.97 0.0
05 21:35 N 8 10.00 Overcast FEW075 FEW090 OVC110 50 24.8 37% 47 29.96 0.0
05 21:15 N 12 10.00 Overcast SCT080 OVC100 50 24.8 37% 46 29.95 0.0
05 20:55 N 13 10.00 Overcast FEW070 BKN080 OVC100 51.8 24.8 35% 29.94 0.0
05 20:35 N 14 10.00 Overcast FEW085 OVC100 51.8 23 32% 29.93 0.0
05 20:15 N 13 10.00 Partly Cloudy SCT100 51.8 24.8 35% 29.93 0.0
05 19:55 N 17 10.00 Partly Cloudy SCT100 53.6 24.8 33% 29.92 0.0
05 19:35 N 16 10.00 Fair CLR 53.6 24.8 33% 29.92 0.0
05 19:15 N 18 10.00 Fair CLR 53.6 24.8 33% 29.91 0.0
05 18:55 N 21 10.00 Fair and Breezy CLR 55.4 26.6 33% 29.91 0.0
05 18:35 N 12 G 24 10.00 A Few Clouds FEW070 55.4 26.6 33% 29.9 0.0
05 18:15 N 10 G 18 10.00 A Few Clouds FEW075 FEW120 55.4 28.4 36% 29.9 0.0
05 17:55 N 13 10.00 Partly Cloudy SCT075 55.4 28.4 36% 29.9 0.0
05 17:35 NW 15 G 25 10.00 Partly Cloudy FEW075 SCT085 57.2 26.6 31% 29.89 0.0
05 17:15 NW 16 10.00 Mostly Cloudy SCT070 BKN085 57.2 26.6 31% 29.9 0.0
05 16:55 NW 12 10.00 Mostly Cloudy BKN070 BKN080 57.2 28.4 33% 29.9 0.0
05 16:35 N 8 10.00 Mostly Cloudy BKN065 BKN080 55.4 30.2 38% 29.91 0.0
05 16:15 N 8 G 14 10.00 Partly Cloudy SCT060 SCT075 55.4 30.2 38% 29.91 0.0
05 15:35 N 9 10.00 A Few Clouds FEW075 57.2 30.2 36% 29.93 0.0
05 15:15 NW 12 10.00 Partly Cloudy FEW060 SCT070 55.4 30.2 38% 29.93 0.0
05 14:55 NW 12 10.00 Mostly Cloudy SCT060 BKN070 55.4 30.2 38% 29.94 0.0
05 14:35 NW 12 10.00 Partly Cloudy SCT060 55.4 28.4 36% 29.94 0.0
05 14:15 NW 12 G 17 10.00 A Few Clouds FEW065 55.4 30.2 38% 29.94 0.0
05 13:55 N 10 10.00 A Few Clouds FEW060 57.2 30.2 36% 29.94 0.0
05 13:35 N 9 10.00 Fair CLR 55.4 30.2 38% 29.95 0.0
05 13:15 NW 9 10.00 Fair CLR 55.4 30.2 38% 29.95 0.0
05 12:55 N 8 G 15 10.00 Mostly Cloudy BKN080 53.6 32 44% 29.96 0.0
05 12:35 N 15 10.00 Partly Cloudy SCT075 51.8 33.8 50% 29.97 0.0
05 12:15 N 10 G 21 10.00 Mostly Cloudy SCT065 BKN080 51.8 33.8 50% 29.97 0.0
05 11:55 NW 10 10.00 Partly Cloudy FEW048 SCT060 SCT075 51.8 33.8 50% 29.97 0.0
05 11:35 N 10 G 22 10.00 Light Rain SCT048 SCT060 50 32 50% 46 29.97 0.0
05 11:15 N 15 G 22 10.00 Partly Cloudy SCT060 SCT085 51.8 30.2 44% 29.97 0.0
05 10:35 N 10 10.00 Overcast OVC070 50 30.2 47% 46 29.95 0.0
05 10:15 N 10 10.00 Mostly Cloudy SCT070 BKN100 51.8 30.2 44% 29.95 0.0
05 09:55 N 10 10.00 Overcast OVC100 50 30.2 47% 46 29.95 0.0
05 09:35 N 9 10.00 Overcast OVC100 50 30.2 47% 47 29.94 0.0
05 09:15 N 12 10.00 Overcast OVC100 50 30.2 47% 46 29.93 0.0
05 08:55 N 8 10.00 Overcast OVC100 50 33.8 54% 47 29.93 0.0
05 08:35 N 6 10.00 Overcast OVC100 48.2 35.6 62% 46 29.93 0.0
05 08:15 NE 6 10.00 Overcast OVC095 48.2 35.6 62% 46 29.92 0.0
05 07:55 N 6 10.00 Overcast OVC095 48.2 37.4 66% 46 29.92 0.0
05 07:35 NE 7 10.00 Overcast OVC100 48.2 37.4 66% 46 29.9 0.0
05 07:15 NE 6 10.00 Overcast OVC100 48.2 39.2 71% 46 29.9 0.0
05 06:55 NE 7 10.00 Overcast OVC100 48.2 41 76% 46 29.88 0.0
05 06:35 NE 8 10.00 Overcast OVC100 48.2 42.8 82% 45 29.87 0.0
05 06:15 NE 9 10.00 Overcast FEW070 FEW085 OVC100 48.2 42.8 82% 45 29.86 0.0
05 05:55 NE 5 10.00 Overcast FEW065 BKN075 OVC110 46.4 44.6 93% 45 29.84 0.0
05 05:35 N 5 10.00 Overcast BKN065 OVC075 46.4 44.6 93% 45 29.84 0.0
05 05:15 NE 3 10.00 Overcast BKN075 OVC095 46.4 44.6 93% 29.84 0.0
05 04:55 NE 6 10.00 Overcast BKN080 OVC090 46.4 44.6 93% 44 29.84 0.0
05 04:35 Calm 10.00 Overcast SCT080 BKN095 OVC120 46.4 41 82% 29.84 0.0
05 04:15 NE 3 10.00 Overcast SCT075 BKN090 OVC120 48.2 41 76% 29.84 0.0
05 03:55 Calm 10.00 Overcast BKN075 OVC090 50 41 71% 29.85 0.0
05 03:35 Calm 10.00 Overcast FEW080 OVC095 50 39.2 67% 29.84 0.0
05 03:15 Calm 10.00 Overcast FEW080 OVC100 50 41 71% 29.84 0.0
05 02:55 Calm 10.00 Overcast FEW065 BKN080 OVC095 50 41 71% 29.83 0.0
05 02:35 Calm 10.00 Overcast OVC075 50 41 71% 29.84 0.0
05 02:15 Calm 10.00 Overcast BKN065 OVC075 50 41 71% 29.84 0.0
05 01:55 NE 5 10.00 Overcast FEW048 SCT060 OVC070 50 41 71% 49 29.83 0.0
05 01:35 Calm 10.00 Light Rain FEW036 SCT047 BKN070 50 41 71% 29.83 0.0
05 01:15 E 6 10.00 Overcast FEW050 SCT075 OVC090 50 41 71% 48 29.83 0.0
05 00:55 E 6 10.00 Overcast OVC090 50 41 71% 48 29.83 0.0
05 00:35 NE 9 10.00 Overcast OVC090 50 41 71% 47 29.82 0.0
05 00:15 NE 12 10.00 Light Rain FEW042 SCT075 OVC095 50 41 71% 46 29.81 0.0
04 23:55 NE 12 10.00 Overcast FEW043 SCT075 OVC095 51.8 37.4 58% 29.82 0.0
04 23:35 NE 13 10.00 Overcast SCT080 OVC095 51.8 37.4 58% 29.82 0.0
04 23:15 N 18 G 25 10.00 Overcast FEW049 SCT075 OVC095 53.6 35.6 51% 29.84 0.0
Date Time (cdt) Wind (mph) Vis. (mi.) Weather Sky Cond. Air Dwpt Max. Min. Relative Humidity Wind Chill (°F) Heat Index (°F) altimeter (in) sea level (mb) 1 hr 3 hr 6 hr
6 hour
Temperature (ºF) Pressure Precipitation (in)